createdAt,value
2022-11-03T00:00:43.417Z,5.20
2022-11-03T00:03:30.367Z,5.30
2022-11-03T00:06:10.426Z,5.30
2022-11-03T00:08:57.338Z,5.40
2022-11-03T00:11:43.388Z,5.40
2022-11-03T00:14:30.402Z,5.50
2022-11-03T00:17:10.448Z,5.50
2022-11-03T00:19:57.369Z,5.60
2022-11-03T00:22:45.428Z,5.60
2022-11-03T00:25:25.393Z,5.60
2022-11-03T00:28:05.892Z,5.60
2022-11-03T00:30:53.384Z,5.70
2022-11-03T00:33:41.430Z,5.70
2022-11-03T00:36:24.415Z,5.60
2022-11-03T00:39:05.589Z,5.60
2022-11-03T00:41:53.363Z,5.60
2022-11-03T00:44:33.987Z,5.60
2022-11-03T00:47:23.361Z,5.60
2022-11-03T00:50:11.530Z,5.60
2022-11-03T00:52:51.424Z,5.60
2022-11-03T00:55:38.399Z,5.60
2022-11-03T00:58:20.556Z,5.70
2022-11-03T01:01:14.535Z,5.70
2022-11-03T01:04:22.501Z,5.70
2022-11-03T01:07:04.332Z,5.70
2022-11-03T01:09:53.443Z,5.70
2022-11-03T01:12:34.013Z,5.70
2022-11-03T01:15:20.785Z,5.70
2022-11-03T01:18:07.528Z,5.70
2022-11-03T01:20:47.484Z,5.60
2022-11-03T01:23:34.562Z,5.50
2022-11-03T01:26:16.492Z,5.50
2022-11-03T01:29:05.608Z,5.40
2022-11-03T01:31:45.481Z,5.40
2022-11-03T01:34:32.481Z,5.30
2022-11-03T01:37:12.592Z,5.30
2022-11-03T01:39:59.484Z,5.20
2022-11-03T01:42:39.542Z,5.20
2022-11-03T01:45:27.500Z,5.10
2022-11-03T01:48:15.558Z,5.10
2022-11-03T01:51:02.530Z,5.10
2022-11-03T01:53:47.573Z,5.10
2022-11-03T01:56:38.543Z,5.10
2022-11-03T01:59:19.608Z,5.00
2022-11-03T02:02:06.679Z,5.00
2022-11-03T02:04:47.621Z,5.00
2022-11-03T02:08:02.570Z,5.00
2022-11-03T02:10:43.649Z,4.90
2022-11-03T02:13:33.546Z,4.90
2022-11-03T02:16:16.675Z,4.90
2022-11-03T02:19:07.589Z,4.90
2022-11-03T02:22:14.571Z,5.00
2022-11-03T02:25:14.813Z,5.00
2022-11-03T02:28:02.600Z,5.00
2022-11-03T02:31:10.103Z,5.00
2022-11-03T02:34:03.596Z,5.00
2022-11-03T02:36:53.841Z,5.00
2022-11-03T02:39:49.637Z,5.00
2022-11-03T02:42:31.718Z,5.00
2022-11-03T02:45:22.573Z,5.10
2022-11-03T02:48:11.697Z,5.10
2022-11-03T02:50:53.595Z,5.10
2022-11-03T02:53:46.644Z,5.00
2022-11-03T02:56:29.729Z,5.10
2022-11-03T02:59:23.613Z,5.10
2022-11-03T03:02:21.761Z,5.10
2022-11-03T03:05:12.622Z,5.10
2022-11-03T03:07:55.697Z,5.10
2022-11-03T03:10:46.653Z,5.00
2022-11-03T03:13:28.744Z,5.00
2022-11-03T03:16:23.688Z,4.90
2022-11-03T03:19:27.742Z,4.90
2022-11-03T03:25:30.712Z,4.80
2022-11-03T03:28:22.736Z,4.80
2022-11-03T03:31:06.153Z,4.80
2022-11-03T03:34:04.318Z,4.70
2022-11-03T03:36:49.709Z,4.80
2022-11-03T03:39:40.692Z,4.80
2022-11-03T03:42:22.585Z,4.80
2022-11-03T03:45:10.715Z,4.70
2022-11-03T03:47:54.895Z,4.70
2022-11-03T03:50:45.882Z,4.70
2022-11-03T03:53:33.741Z,4.70
2022-11-03T03:56:20.756Z,4.70
2022-11-03T03:59:00.744Z,4.70
2022-11-03T04:01:47.972Z,4.80
2022-11-03T04:04:27.753Z,4.80
2022-11-03T04:07:39.303Z,4.80
2022-11-03T04:10:26.773Z,4.80
2022-11-03T04:13:33.728Z,4.80
2022-11-03T04:16:34.573Z,4.80
2022-11-03T04:19:39.787Z,4.80
2022-11-03T04:22:21.355Z,4.80
2022-11-03T04:25:07.753Z,4.80
2022-11-03T04:27:47.840Z,4.80
2022-11-03T04:30:42.967Z,4.70
2022-11-03T04:33:27.862Z,4.70
2022-11-03T04:39:26.833Z,4.70
2022-11-03T04:42:41.800Z,4.70
2022-11-03T04:45:38.289Z,4.80
2022-11-03T04:48:28.941Z,4.80
2022-11-03T04:51:21.836Z,4.80
2022-11-03T04:54:19.836Z,4.80
2022-11-03T04:56:59.848Z,4.80
2022-11-03T04:59:49.943Z,4.70
2022-11-03T05:02:29.906Z,4.70
2022-11-03T05:05:28.869Z,4.70
2022-11-03T05:08:08.947Z,4.70
2022-11-03T05:10:56.029Z,4.70
2022-11-03T05:13:35.880Z,4.70
2022-11-03T05:16:22.864Z,4.60
2022-11-03T05:19:02.907Z,4.60
2022-11-03T05:21:56.883Z,4.60
2022-11-03T05:24:43.979Z,4.60
2022-11-03T05:27:28.090Z,4.50
2022-11-03T05:30:21.842Z,4.50
2022-11-03T05:33:01.919Z,4.50
2022-11-03T05:35:48.880Z,4.50
2022-11-03T05:38:29.974Z,4.50
2022-11-03T05:41:36.885Z,4.50
2022-11-03T05:44:43.980Z,4.50
2022-11-03T05:47:37.929Z,4.50
2022-11-03T05:50:28.026Z,4.50
2022-11-03T05:53:36.965Z,4.50
2022-11-03T05:56:25.038Z,4.50
2022-11-03T05:59:13.896Z,4.40
2022-11-03T06:01:54.194Z,4.40
2022-11-03T06:04:46.962Z,4.40
2022-11-03T06:07:32.966Z,4.40
2022-11-03T06:10:39.128Z,4.30
2022-11-03T06:13:24.974Z,4.30
2022-11-03T06:16:36.000Z,4.30
2022-11-03T06:19:29.072Z,4.40
2022-11-03T06:22:32.946Z,4.40
2022-11-03T06:25:23.017Z,4.40
2022-11-03T06:28:07.948Z,4.50
2022-11-03T06:30:50.076Z,4.50
2022-11-03T06:33:48.941Z,4.60
2022-11-03T06:36:35.164Z,4.70
2022-11-03T06:39:37.071Z,4.70
2022-11-03T06:42:31.743Z,4.80
2022-11-03T06:45:32.018Z,4.90
2022-11-03T06:48:22.048Z,5.00
2022-11-03T06:51:05.044Z,5.10
2022-11-03T06:53:52.069Z,5.20
2022-11-03T06:56:38.064Z,5.40
2022-11-03T06:59:26.172Z,5.50
2022-11-03T07:02:07.108Z,5.70
2022-11-03T07:04:54.146Z,5.80
2022-11-03T07:07:34.049Z,6.00
2022-11-03T07:10:15.122Z,6.20
2022-11-03T07:13:06.944Z,6.40
2022-11-03T07:15:54.287Z,6.60
2022-11-03T07:18:49.167Z,6.80
2022-11-03T07:22:00.071Z,7.00
2022-11-03T07:24:51.068Z,7.20
2022-11-03T07:27:37.179Z,7.40
2022-11-03T07:30:26.081Z,7.60
2022-11-03T07:33:21.267Z,7.80
2022-11-03T07:36:15.468Z,8.10
2022-11-03T07:38:59.156Z,8.40
2022-11-03T07:41:46.138Z,8.80
2022-11-03T07:44:27.184Z,9.10
2022-11-03T07:47:20.079Z,9.50
2022-11-03T07:50:02.242Z,9.90
2022-11-03T07:52:50.141Z,10.40
2022-11-03T07:55:30.202Z,11.00
2022-11-03T07:58:35.138Z,11.40
2022-11-03T08:01:27.262Z,11.80
2022-11-03T08:04:39.156Z,12.10
2022-11-03T08:07:19.202Z,12.30
2022-11-03T08:10:06.169Z,12.40
2022-11-03T08:12:46.260Z,12.40
2022-11-03T08:15:33.132Z,12.40
2022-11-03T08:18:20.159Z,12.40
2022-11-03T08:21:07.305Z,12.40
2022-11-03T08:23:54.138Z,12.40
2022-11-03T08:26:41.141Z,12.30
2022-11-03T08:29:28.433Z,12.20
2022-11-03T08:32:08.187Z,12.20
2022-11-03T08:34:55.238Z,12.10
2022-11-03T08:37:35.211Z,12.10
2022-11-03T08:40:15.956Z,12.10
2022-11-03T08:43:02.173Z,12.10
2022-11-03T08:45:42.683Z,12.20
2022-11-03T08:48:29.251Z,12.50
2022-11-03T08:51:13.171Z,12.50
2022-11-03T08:54:00.259Z,12.70
2022-11-03T08:56:48.852Z,12.60
2022-11-03T08:59:28.248Z,12.70
2022-11-03T09:02:15.304Z,12.90
2022-11-03T09:04:55.272Z,13.20
2022-11-03T09:10:42.834Z,13.60
2022-11-03T09:13:22.784Z,13.50
2022-11-03T09:16:09.274Z,13.50
2022-11-03T09:18:49.865Z,13.60
2022-11-03T09:21:36.393Z,13.70
2022-11-03T09:24:23.366Z,13.80
2022-11-03T09:27:03.351Z,13.90
2022-11-03T09:30:11.711Z,14.00
2022-11-03T09:32:50.272Z,14.20
2022-11-03T09:35:37.380Z,14.60
2022-11-03T09:38:17.329Z,14.90
2022-11-03T09:41:09.746Z,15.40
2022-11-03T09:44:01.293Z,15.80
2022-11-03T09:46:41.992Z,16.00
2022-11-03T09:49:29.481Z,16.00
2022-11-03T09:52:15.593Z,16.00
2022-11-03T09:55:04.355Z,16.20
2022-11-03T09:57:53.397Z,16.40
2022-11-03T10:00:35.285Z,16.50
2022-11-03T10:03:17.913Z,16.60
2022-11-03T10:06:04.369Z,16.90
2022-11-03T10:08:54.482Z,17.20
2022-11-03T10:11:34.372Z,17.70
2022-11-03T10:14:23.332Z,18.10
2022-11-03T10:17:06.403Z,18.40
2022-11-03T10:19:59.380Z,18.70
2022-11-03T10:22:47.495Z,18.80
2022-11-03T10:25:39.448Z,18.70
2022-11-03T10:28:23.813Z,18.70
2022-11-03T10:31:13.729Z,18.70
2022-11-03T10:33:55.474Z,18.60
2022-11-03T10:36:48.121Z,18.30
2022-11-03T10:39:37.594Z,18.20
2022-11-03T10:42:43.385Z,18.00
2022-11-03T10:45:24.594Z,17.60
2022-11-03T10:48:18.427Z,17.40
2022-11-03T10:50:58.962Z,17.20
2022-11-03T10:53:45.420Z,17.00
2022-11-03T10:56:26.747Z,17.00
2022-11-03T10:59:15.408Z,17.10
2022-11-03T11:02:03.892Z,17.00
2022-11-03T11:04:43.470Z,16.90
2022-11-03T11:07:33.794Z,16.80
2022-11-03T11:10:27.463Z,16.80
2022-11-03T11:13:23.676Z,16.70
2022-11-03T11:16:06.516Z,16.40
2022-11-03T11:18:53.514Z,16.40
2022-11-03T11:21:35.731Z,16.30
2022-11-03T11:24:51.517Z,16.30
2022-11-03T11:27:46.468Z,16.20
2022-11-03T11:30:37.565Z,16.20
2022-11-03T11:33:29.458Z,16.30
2022-11-03T11:36:28.634Z,16.30
2022-11-03T11:39:10.531Z,16.30
2022-11-03T11:42:23.573Z,16.20
2022-11-03T11:45:05.639Z,16.20
2022-11-03T11:47:56.499Z,16.20
2022-11-03T11:50:44.527Z,16.20
2022-11-03T11:53:33.609Z,16.10
2022-11-03T11:56:20.488Z,16.20
2022-11-03T11:59:01.141Z,16.20
2022-11-03T12:01:50.631Z,16.10
2022-11-03T12:04:37.558Z,16.00
2022-11-03T12:07:20.569Z,16.00
2022-11-03T12:10:27.664Z,15.90
2022-11-03T12:13:08.508Z,15.80
2022-11-03T12:16:03.697Z,15.80
2022-11-03T12:18:50.542Z,15.70
2022-11-03T12:21:56.630Z,15.60
2022-11-03T12:24:44.584Z,15.70
2022-11-03T12:27:34.054Z,15.70
2022-11-03T12:30:25.554Z,15.60
2022-11-03T12:33:05.967Z,15.60
2022-11-03T12:35:52.623Z,15.60
2022-11-03T12:38:32.672Z,15.60
2022-11-03T12:41:28.652Z,15.60
2022-11-03T12:44:08.781Z,15.70
2022-11-03T12:46:55.568Z,15.70
2022-11-03T12:49:42.626Z,15.70
2022-11-03T12:52:29.623Z,15.70
2022-11-03T12:55:09.784Z,15.70
2022-11-03T12:57:56.653Z,15.80
2022-11-03T13:00:37.747Z,15.80
2022-11-03T13:03:24.651Z,15.70
2022-11-03T13:06:16.638Z,15.70
2022-11-03T13:08:57.118Z,15.70
2022-11-03T13:12:01.637Z,15.60
2022-11-03T13:14:45.924Z,15.50
2022-11-03T13:17:51.998Z,15.40
2022-11-03T13:20:35.887Z,15.30
2022-11-03T13:23:23.122Z,15.30
2022-11-03T13:26:03.369Z,15.30
2022-11-03T13:28:49.670Z,15.20
2022-11-03T13:31:31.262Z,15.10
2022-11-03T13:34:17.697Z,15.00
2022-11-03T13:36:58.728Z,15.00
2022-11-03T13:39:45.748Z,15.10
2022-11-03T13:42:32.777Z,15.10
2022-11-03T13:45:13.728Z,15.10
2022-11-03T13:48:48.482Z,15.10
2022-11-03T13:51:00.794Z,15.10
2022-11-03T13:59:55.577Z,15.10
2022-11-03T14:05:52.835Z,15.00
2022-11-03T14:08:33.759Z,15.00
2022-11-03T14:11:32.615Z,15.00
2022-11-03T14:14:18.754Z,15.00
2022-11-03T14:16:59.277Z,15.00
2022-11-03T14:19:50.377Z,14.90
2022-11-03T14:22:46.867Z,14.80
2022-11-03T14:25:33.772Z,14.80
2022-11-03T14:28:26.045Z,14.70
2022-11-03T14:31:12.857Z,14.80
2022-11-03T14:33:52.846Z,14.60
2022-11-03T14:36:40.859Z,14.50
2022-11-03T14:39:20.877Z,14.50
2022-11-03T14:42:10.816Z,14.40
2022-11-03T14:47:44.850Z,14.30
2022-11-03T14:50:24.842Z,14.20
2022-11-03T14:53:12.047Z,14.20
2022-11-03T14:55:51.875Z,14.20
2022-11-03T14:58:38.805Z,14.20
2022-11-03T15:01:19.163Z,14.10
2022-11-03T15:04:06.046Z,14.10
2022-11-03T15:06:46.910Z,14.00
2022-11-03T15:09:33.867Z,13.90
2022-11-03T15:12:14.014Z,13.80
2022-11-03T15:15:00.851Z,13.70
2022-11-03T15:17:41.132Z,13.60
2022-11-03T15:20:27.845Z,13.60
2022-11-03T15:26:16.470Z,13.40
2022-11-03T15:29:02.886Z,13.30
2022-11-03T15:31:49.957Z,13.30
2022-11-03T15:34:29.936Z,13.30
2022-11-03T15:37:10.577Z,13.30
2022-11-03T15:39:59.677Z,13.30
2022-11-03T15:42:46.971Z,13.20
2022-11-03T15:45:27.379Z,13.20
2022-11-03T15:48:08.102Z,13.20
2022-11-03T15:50:54.975Z,13.10
2022-11-03T15:53:43.586Z,13.10
2022-11-03T15:56:23.163Z,13.10
2022-11-03T15:59:10.024Z,13.00
2022-11-03T16:01:50.097Z,13.00
2022-11-03T16:04:37.008Z,12.90
2022-11-03T16:07:16.977Z,12.90
2022-11-03T16:09:58.445Z,12.80
2022-11-03T16:12:45.014Z,12.80
2022-11-03T16:15:25.485Z,12.70
2022-11-03T16:18:11.984Z,12.70
2022-11-03T16:20:52.461Z,12.60
2022-11-03T16:23:38.976Z,12.50
2022-11-03T16:26:26.113Z,12.50
2022-11-03T16:29:06.041Z,12.40
2022-11-03T16:31:53.437Z,12.40
2022-11-03T16:34:33.008Z,12.40
2022-11-03T16:37:13.887Z,12.30
2022-11-03T16:40:01.022Z,12.30
2022-11-03T16:42:41.534Z,12.30
2022-11-03T16:45:37.745Z,12.30
2022-11-03T16:48:25.108Z,12.20
2022-11-03T16:51:06.052Z,12.10
2022-11-03T16:53:53.082Z,12.00
2022-11-03T16:56:33.177Z,11.90
2022-11-03T16:59:20.037Z,11.80
2022-11-03T17:02:00.463Z,11.80
2022-11-03T17:04:47.059Z,11.70
2022-11-03T17:07:27.194Z,11.70
2022-11-03T17:10:15.053Z,11.60
2022-11-03T17:12:56.098Z,11.60
2022-11-03T17:15:43.078Z,11.50
2022-11-03T17:18:30.096Z,11.50
2022-11-03T17:21:17.140Z,11.50
2022-11-03T17:24:13.069Z,11.40
2022-11-03T17:27:04.297Z,11.30
2022-11-03T17:29:57.184Z,11.20
2022-11-03T17:32:44.177Z,11.20
2022-11-03T17:35:39.014Z,11.10
2022-11-03T17:38:22.187Z,11.10
2022-11-03T17:41:09.286Z,11.10
2022-11-03T17:43:49.249Z,11.10
2022-11-03T17:46:36.150Z,11.00
2022-11-03T17:49:16.188Z,11.00
2022-11-03T17:52:03.081Z,11.00
2022-11-03T17:54:43.197Z,11.00
2022-11-03T17:57:31.142Z,10.90
2022-11-03T18:00:12.004Z,10.90
2022-11-03T18:02:59.151Z,10.90
2022-11-03T18:05:39.983Z,10.80
2022-11-03T18:08:27.194Z,10.80
2022-11-03T18:11:07.231Z,10.80
2022-11-03T18:13:57.193Z,10.70
2022-11-03T18:16:38.207Z,10.70
2022-11-03T18:19:25.184Z,10.70
2022-11-03T18:22:05.296Z,10.70
2022-11-03T18:24:52.183Z,10.60
2022-11-03T18:27:32.352Z,10.70
2022-11-03T18:30:23.318Z,10.70
2022-11-03T18:33:03.274Z,10.70
2022-11-03T18:35:50.563Z,10.70
2022-11-03T18:38:32.216Z,10.80
2022-11-03T18:41:43.252Z,10.80
2022-11-03T18:44:28.151Z,10.80
2022-11-03T18:47:17.188Z,10.80
2022-11-03T18:49:57.339Z,10.80
2022-11-03T18:52:54.303Z,10.80
2022-11-03T18:55:35.469Z,10.70
2022-11-03T18:58:28.314Z,10.70
2022-11-03T19:01:09.960Z,10.70
2022-11-03T19:03:56.233Z,10.60
2022-11-03T19:06:36.399Z,10.60
2022-11-03T19:09:28.292Z,10.60
2022-11-03T19:12:08.399Z,10.60
2022-11-03T19:14:56.247Z,10.60
2022-11-03T19:17:40.473Z,10.60
2022-11-03T19:20:27.386Z,10.60
2022-11-03T19:23:22.256Z,10.60
2022-11-03T19:26:09.308Z,10.60
2022-11-03T19:28:50.325Z,10.60
2022-11-03T19:31:41.321Z,10.70
2022-11-03T19:34:25.643Z,10.70
2022-11-03T19:37:13.401Z,10.70
2022-11-03T19:40:00.332Z,10.70
2022-11-03T19:42:47.336Z,10.70
2022-11-03T19:45:28.948Z,10.70
2022-11-03T19:48:25.215Z,10.70
2022-11-03T19:51:05.533Z,10.70
2022-11-03T19:53:53.666Z,10.60
2022-11-03T19:56:33.391Z,10.60
2022-11-03T19:59:22.503Z,10.50
2022-11-03T20:02:02.680Z,10.50
2022-11-03T20:04:53.377Z,10.40
2022-11-03T20:07:33.530Z,10.30
2022-11-03T20:10:23.375Z,10.30
2022-11-03T20:13:04.000Z,10.30
2022-11-03T20:15:50.794Z,10.30
2022-11-03T20:18:38.417Z,10.30
2022-11-03T20:21:20.553Z,10.30
2022-11-03T20:24:07.422Z,10.20
2022-11-03T20:26:54.445Z,10.20
2022-11-03T20:29:35.452Z,10.10
2022-11-03T20:32:22.399Z,10.10
2022-11-03T20:35:02.494Z,10.00
2022-11-03T20:37:56.445Z,10.00
2022-11-03T20:40:38.455Z,10.00
2022-11-03T20:43:32.433Z,9.90
2022-11-03T20:46:34.396Z,9.90
2022-11-03T20:49:15.200Z,9.80
2022-11-03T20:52:01.456Z,9.80
2022-11-03T20:54:50.997Z,9.80
2022-11-03T20:57:30.433Z,9.70
2022-11-03T21:00:27.497Z,9.70
2022-11-03T21:03:08.770Z,9.70
2022-11-03T21:05:55.402Z,9.70
2022-11-03T21:08:35.503Z,9.80
2022-11-03T21:11:31.466Z,9.80
2022-11-03T21:14:22.497Z,9.80
2022-11-03T21:17:28.468Z,9.80
2022-11-03T21:20:11.886Z,9.90
2022-11-03T21:22:58.468Z,9.90
2022-11-03T21:25:52.478Z,9.90
2022-11-03T21:28:32.968Z,10.00
2022-11-03T21:31:23.464Z,10.00
2022-11-03T21:34:03.948Z,10.00
2022-11-03T21:36:50.601Z,10.10
2022-11-03T21:39:39.256Z,10.10
2022-11-03T21:42:39.562Z,10.20
2022-11-03T21:45:26.740Z,10.30
2022-11-03T21:48:25.565Z,10.30
2022-11-03T21:51:12.580Z,10.40
2022-11-03T21:53:53.539Z,10.40
2022-11-03T21:56:34.018Z,10.30
2022-11-03T21:59:20.528Z,10.30
2022-11-03T22:02:08.653Z,10.30
2022-11-03T22:04:48.505Z,10.20
2022-11-03T22:07:38.613Z,10.10
2022-11-03T22:10:18.523Z,10.10
2022-11-03T22:13:05.844Z,10.00
2022-11-03T22:16:04.555Z,10.00
2022-11-03T22:18:51.607Z,10.00
2022-11-03T22:21:50.639Z,10.00
2022-11-03T22:25:02.577Z,10.00
2022-11-03T22:27:55.605Z,10.00
2022-11-03T22:31:05.031Z,10.00
2022-11-03T22:34:10.603Z,10.00
2022-11-03T22:36:57.563Z,10.00
2022-11-03T22:39:56.614Z,10.00
2022-11-03T22:43:01.656Z,10.00
2022-11-03T22:45:51.458Z,10.00
2022-11-03T22:48:32.656Z,10.00
2022-11-03T22:51:22.664Z,10.10
2022-11-03T22:54:17.678Z,10.10
2022-11-03T22:56:58.161Z,10.10
2022-11-03T22:59:44.616Z,10.10
2022-11-03T23:02:25.429Z,10.10
2022-11-03T23:05:12.654Z,10.10
2022-11-03T23:07:53.128Z,10.10
2022-11-03T23:10:39.628Z,10.20
2022-11-03T23:13:24.170Z,10.30
2022-11-03T23:16:10.637Z,10.30
2022-11-03T23:19:10.228Z,10.40
2022-11-03T23:21:58.667Z,10.40
2022-11-03T23:25:07.657Z,10.40
2022-11-03T23:27:59.716Z,10.50
2022-11-03T23:30:42.729Z,10.50
2022-11-03T23:33:29.681Z,10.40
2022-11-03T23:36:26.675Z,10.40
2022-11-03T23:39:14.985Z,10.40
2022-11-03T23:41:56.829Z,10.40
2022-11-03T23:45:02.775Z,10.50
2022-11-03T23:48:01.592Z,10.50
2022-11-03T23:50:49.724Z,10.50
2022-11-03T23:53:31.940Z,10.60
2022-11-03T23:56:39.802Z,10.60
2022-11-03T23:59:21.803Z,10.70
